createdAt,value
2022-08-16T00:00:24.357Z,26.72
2022-08-16T00:00:55.791Z,26.73
2022-08-16T00:01:33.694Z,26.73
2022-08-16T00:02:13.210Z,26.72
2022-08-16T00:02:44.885Z,26.74
2022-08-16T00:03:17.913Z,26.71
2022-08-16T00:03:49.349Z,26.72
2022-08-16T00:04:20.775Z,26.71
2022-08-16T00:04:52.353Z,26.71
2022-08-16T00:05:24.135Z,26.69
2022-08-16T00:05:57.481Z,26.70
2022-08-16T00:06:29.384Z,26.70
2022-08-16T00:07:00.816Z,26.69
2022-08-16T00:07:34.387Z,26.69
2022-08-16T00:08:06.473Z,26.67
2022-08-16T00:08:39.237Z,26.67
2022-08-16T00:09:10.995Z,26.67
2022-08-16T00:09:42.482Z,26.67
2022-08-16T00:10:20.123Z,26.68
2022-08-16T00:10:52.701Z,26.67
2022-08-16T00:11:24.964Z,26.66
2022-08-16T00:11:58.807Z,26.65
2022-08-16T00:12:30.246Z,26.64
2022-08-16T00:13:02.042Z,26.65
2022-08-16T00:13:33.631Z,26.64
2022-08-16T00:14:13.423Z,26.62
2022-08-16T00:14:44.847Z,26.63
2022-08-16T00:15:17.061Z,26.63
2022-08-16T00:15:51.455Z,26.64
2022-08-16T00:17:01.478Z,26.62
2022-08-16T00:17:18.776Z,26.61
2022-08-16T00:17:56.812Z,26.62
2022-08-16T00:18:29.816Z,26.62
2022-08-16T00:19:03.156Z,26.62
2022-08-16T00:19:41.351Z,26.61
2022-08-16T00:20:13.587Z,26.61
2022-08-16T00:20:46.388Z,26.61
2022-08-16T00:21:17.823Z,26.60
2022-08-16T00:21:53.342Z,26.60
2022-08-16T00:22:27.943Z,26.59
2022-08-16T00:22:59.500Z,26.58
2022-08-16T00:23:40.445Z,26.58
2022-08-16T00:24:32.808Z,26.59
2022-08-16T00:25:04.673Z,26.58
2022-08-16T00:26:33.390Z,26.57
2022-08-16T00:26:36.200Z,26.57
2022-08-16T00:27:15.174Z,26.56
2022-08-16T00:27:47.057Z,26.55
2022-08-16T00:28:18.613Z,26.54
2022-08-16T00:28:54.517Z,26.55
2022-08-16T00:29:26.568Z,26.55
2022-08-16T00:30:19.096Z,26.54
2022-08-16T00:30:51.163Z,26.52
2022-08-16T00:31:24.289Z,26.52
2022-08-16T00:32:00.478Z,26.52
2022-08-16T00:32:36.884Z,26.53
2022-08-16T00:33:09.969Z,26.51
2022-08-16T00:33:41.521Z,26.52
2022-08-16T00:34:21.816Z,26.51
2022-08-16T00:34:54.351Z,26.51
2022-08-16T00:35:25.865Z,26.50
2022-08-16T00:36:00.545Z,26.49
2022-08-16T00:36:33.036Z,26.49
2022-08-16T00:37:04.468Z,26.47
2022-08-16T00:37:57.624Z,26.49
2022-08-16T00:38:43.561Z,26.48
2022-08-16T00:39:15.518Z,26.48
2022-08-16T00:39:47.743Z,26.46
2022-08-16T00:40:34.307Z,26.45
2022-08-16T00:41:08.101Z,26.45
2022-08-16T00:41:39.972Z,26.44
2022-08-16T00:42:12.376Z,26.45
2022-08-16T00:42:43.866Z,26.44
2022-08-16T00:43:19.379Z,26.45
2022-08-16T00:43:51.004Z,26.44
2022-08-16T00:44:32.672Z,26.44
2022-08-16T00:45:08.040Z,26.43
2022-08-16T00:45:57.769Z,26.42
2022-08-16T00:46:34.032Z,26.42
2022-08-16T00:47:06.726Z,26.42
2022-08-16T00:47:38.236Z,26.43
2022-08-16T00:48:30.365Z,26.42
2022-08-16T00:49:02.478Z,26.41
2022-08-16T00:49:39.783Z,26.42
2022-08-16T00:50:16.443Z,26.41
2022-08-16T00:50:48.787Z,26.41
2022-08-16T00:51:29.426Z,26.40
2022-08-16T00:52:01.171Z,26.38
2022-08-16T00:52:33.160Z,26.40
2022-08-16T00:53:04.780Z,26.38
2022-08-16T00:53:36.987Z,26.37
2022-08-16T00:54:11.712Z,26.38
2022-08-16T00:54:43.215Z,26.37
2022-08-16T00:55:16.193Z,26.37
2022-08-16T00:55:47.914Z,26.36
2022-08-16T00:56:56.299Z,26.37
2022-08-16T00:57:11.557Z,26.35
2022-08-16T00:57:59.274Z,26.35
2022-08-16T00:58:34.673Z,26.36
2022-08-16T00:59:06.521Z,26.36
2022-08-16T00:59:37.962Z,26.35
2022-08-16T01:00:26.049Z,26.33
2022-08-16T01:00:58.236Z,26.33
2022-08-16T01:01:29.744Z,26.33
2022-08-16T01:02:30.707Z,26.32
2022-08-16T01:02:53.516Z,26.32
2022-08-16T01:03:29.459Z,26.32
2022-08-16T01:04:02.017Z,26.31
2022-08-16T01:04:36.901Z,26.31
2022-08-16T01:05:10.737Z,26.30
2022-08-16T01:05:43.277Z,26.30
2022-08-16T01:06:32.521Z,26.30
2022-08-16T01:07:06.675Z,26.29
2022-08-16T01:07:50.630Z,26.29
2022-08-16T01:08:35.757Z,26.29
2022-08-16T01:09:08.106Z,26.29
2022-08-16T01:09:42.786Z,26.28
2022-08-16T01:10:16.067Z,26.27
2022-08-16T01:10:48.432Z,26.27
2022-08-16T01:11:19.861Z,26.26
2022-08-16T01:11:55.208Z,26.27
2022-08-16T01:12:28.192Z,26.27
2022-08-16T01:13:00.264Z,26.26
2022-08-16T01:13:31.813Z,26.26
2022-08-16T01:14:04.033Z,26.25
2022-08-16T01:14:35.460Z,26.24
2022-08-16T01:15:06.905Z,26.25
2022-08-16T01:15:43.110Z,26.23
2022-08-16T01:16:20.093Z,26.25
2022-08-16T01:16:51.664Z,26.25
2022-08-16T01:17:24.325Z,26.23
2022-08-16T01:17:56.330Z,26.24
2022-08-16T01:18:40.229Z,26.23
2022-08-16T01:19:12.706Z,26.22
2022-08-16T01:19:46.804Z,26.23
2022-08-16T01:20:24.439Z,26.22
2022-08-16T01:21:01.805Z,26.22
2022-08-16T01:21:33.950Z,26.21
2022-08-16T01:22:48.318Z,26.20
2022-08-16T01:22:57.716Z,26.20
2022-08-16T01:23:58.489Z,26.20
2022-08-16T01:24:51.723Z,26.17
2022-08-16T01:25:13.493Z,26.19
2022-08-16T01:25:44.922Z,26.18
2022-08-16T01:26:34.382Z,26.19
2022-08-16T01:27:06.747Z,26.16
2022-08-16T01:27:38.539Z,26.17
2022-08-16T01:28:10.113Z,26.16
2022-08-16T01:28:51.290Z,26.16
2022-08-16T01:29:22.741Z,26.16
2022-08-16T01:30:19.923Z,26.16
2022-08-16T01:30:52.415Z,26.15
2022-08-16T01:31:23.850Z,26.15
2022-08-16T01:32:02.594Z,26.13
2022-08-16T01:32:34.546Z,26.14
2022-08-16T01:33:15.466Z,26.14
2022-08-16T01:33:47.232Z,26.13
2022-08-16T01:34:24.982Z,26.12
2022-08-16T01:34:58.011Z,26.12
2022-08-16T01:35:30.200Z,26.12
2022-08-16T01:36:09.378Z,26.11
2022-08-16T01:36:43.985Z,26.11
2022-08-16T01:37:16.650Z,26.11
2022-08-16T01:37:53.913Z,26.10
2022-08-16T01:38:28.196Z,26.11
2022-08-16T01:39:00.009Z,26.11
2022-08-16T01:39:35.482Z,26.10
2022-08-16T01:40:07.513Z,26.09
2022-08-16T01:40:39.157Z,26.10
2022-08-16T01:41:10.743Z,26.08
2022-08-16T01:41:42.331Z,26.09
2022-08-16T01:42:15.760Z,26.09
2022-08-16T01:42:51.614Z,26.09
2022-08-16T01:43:25.480Z,26.08
2022-08-16T01:43:56.903Z,26.07
2022-08-16T01:44:37.655Z,26.08
2022-08-16T01:45:09.892Z,26.06
2022-08-16T01:45:41.652Z,26.07
2022-08-16T01:46:37.622Z,26.06
2022-08-16T01:47:06.199Z,26.04
2022-08-16T01:47:37.800Z,26.04
2022-08-16T01:48:21.022Z,26.03
2022-08-16T01:48:52.517Z,26.02
2022-08-16T01:49:23.944Z,26.03
2022-08-16T01:50:44.277Z,26.02
2022-08-16T01:51:08.157Z,26.02
2022-08-16T01:51:41.277Z,26.02
2022-08-16T01:52:29.586Z,26.03
2022-08-16T01:53:02.317Z,26.03
2022-08-16T01:53:34.184Z,26.02
2022-08-16T01:54:06.185Z,26.01
2022-08-16T01:54:38.042Z,26.02
2022-08-16T01:55:11.534Z,26.01
2022-08-16T01:55:53.700Z,26.02
2022-08-16T01:56:25.684Z,26.01
2022-08-16T01:56:57.109Z,26.00
2022-08-16T01:57:28.626Z,26.00
2022-08-16T01:58:03.067Z,25.98
2022-08-16T01:58:34.531Z,25.98
2022-08-16T01:59:15.610Z,25.97
2022-08-16T01:59:47.544Z,25.96
2022-08-16T02:00:29.230Z,25.97
2022-08-16T02:01:01.359Z,25.97
2022-08-16T02:01:32.885Z,25.96
2022-08-16T02:02:05.219Z,25.97
2022-08-16T02:02:56.678Z,25.96
2022-08-16T02:03:28.128Z,25.96
2022-08-16T02:04:11.616Z,25.96
2022-08-16T02:04:49.649Z,25.95
2022-08-16T02:05:30.652Z,25.94
2022-08-16T02:06:02.412Z,25.94
2022-08-16T02:06:39.490Z,25.94
2022-08-16T02:07:17.571Z,25.94
2022-08-16T02:07:49.036Z,25.95
2022-08-16T02:08:33.420Z,25.95
2022-08-16T02:09:05.691Z,25.94
2022-08-16T02:09:37.516Z,25.93
2022-08-16T02:10:10.040Z,25.93
2022-08-16T02:10:41.509Z,25.92
2022-08-16T02:11:12.942Z,25.93
2022-08-16T02:11:48.643Z,25.93
2022-08-16T02:12:49.741Z,25.93
2022-08-16T02:13:16.279Z,25.92
2022-08-16T02:13:47.848Z,25.92
2022-08-16T02:14:27.295Z,25.92
2022-08-16T02:14:59.492Z,25.92
2022-08-16T02:15:35.354Z,25.92
2022-08-16T02:16:06.988Z,25.91
2022-08-16T02:16:50.047Z,25.91
2022-08-16T02:17:21.476Z,25.91
2022-08-16T02:17:54.627Z,25.90
2022-08-16T02:18:26.230Z,25.90
2022-08-16T02:18:57.655Z,25.91
2022-08-16T02:19:58.672Z,25.90
2022-08-16T02:20:26.205Z,25.90
2022-08-16T02:20:59.573Z,25.90
2022-08-16T02:21:31.839Z,25.89
2022-08-16T02:22:08.709Z,25.88
2022-08-16T02:22:56.164Z,25.89
2022-08-16T02:23:29.739Z,25.88
2022-08-16T02:24:01.231Z,25.88
2022-08-16T02:24:42.023Z,25.88
2022-08-16T02:25:14.718Z,25.88
2022-08-16T02:25:52.562Z,25.86
2022-08-16T02:26:25.572Z,25.87
2022-08-16T02:26:57.107Z,25.86
2022-08-16T02:27:28.843Z,25.86
2022-08-16T02:28:03.168Z,25.86
2022-08-16T02:28:34.595Z,25.85
2022-08-16T02:29:06.708Z,25.86
2022-08-16T02:29:44.625Z,25.84
2022-08-16T02:30:37.014Z,25.85
2022-08-16T02:31:08.236Z,25.84
2022-08-16T02:32:03.589Z,25.83
2022-08-16T02:32:49.958Z,25.83
2022-08-16T02:33:24.971Z,25.83
2022-08-16T02:34:14.508Z,25.83
2022-08-16T02:34:45.984Z,25.82
2022-08-16T02:35:23.080Z,25.82
2022-08-16T02:35:59.951Z,25.83
2022-08-16T02:36:48.237Z,25.82
2022-08-16T02:37:22.052Z,25.82
2022-08-16T02:37:55.127Z,25.82
2022-08-16T02:38:27.621Z,25.81
2022-08-16T02:38:59.053Z,25.81
2022-08-16T02:39:30.533Z,25.80
2022-08-16T02:40:02.815Z,25.81
2022-08-16T02:40:34.323Z,25.81
2022-08-16T02:41:09.515Z,25.81
2022-08-16T02:41:41.276Z,25.79
2022-08-16T02:42:12.717Z,25.80
2022-08-16T02:42:44.730Z,25.79
2022-08-16T02:43:16.186Z,25.79
2022-08-16T02:43:47.611Z,25.79
2022-08-16T02:44:20.222Z,25.79
2022-08-16T02:44:51.661Z,25.79
2022-08-16T02:45:24.816Z,25.78
2022-08-16T02:45:59.127Z,25.78
2022-08-16T02:46:33.783Z,25.77
2022-08-16T02:47:05.335Z,25.78
2022-08-16T02:48:01.573Z,25.78
2022-08-16T02:48:30.793Z,25.77
2022-08-16T02:49:02.477Z,25.78
2022-08-16T02:49:59.405Z,25.77
2022-08-16T02:50:55.332Z,25.76
2022-08-16T02:51:16.770Z,25.75
2022-08-16T02:51:48.201Z,25.75
2022-08-16T02:52:25.051Z,25.74
2022-08-16T02:53:00.960Z,25.74
2022-08-16T02:53:33.712Z,25.73
2022-08-16T02:54:05.145Z,25.73
2022-08-16T02:54:36.831Z,25.74
2022-08-16T02:55:08.286Z,25.72
2022-08-16T02:55:41.021Z,25.72
2022-08-16T02:56:15.176Z,25.72
2022-08-16T02:56:47.930Z,25.72
2022-08-16T02:57:19.582Z,25.73
2022-08-16T02:57:53.892Z,25.71
2022-08-16T02:58:26.040Z,25.71
2022-08-16T02:58:58.977Z,25.71
2022-08-16T02:59:39.766Z,25.72
2022-08-16T03:00:31.821Z,25.71
2022-08-16T03:01:04.549Z,25.71
2022-08-16T03:01:37.035Z,25.71
2022-08-16T03:02:09.053Z,25.69
2022-08-16T03:02:40.587Z,25.71
2022-08-16T03:03:12.038Z,25.69
2022-08-16T03:04:41.262Z,25.69
2022-08-16T03:04:52.188Z,25.68
2022-08-16T03:05:23.865Z,25.68
2022-08-16T03:05:55.292Z,25.68
2022-08-16T03:06:42.123Z,25.68
2022-08-16T03:07:14.383Z,25.67
2022-08-16T03:07:50.594Z,25.67
2022-08-16T03:08:35.593Z,25.67
2022-08-16T03:09:15.034Z,25.66
2022-08-16T03:09:47.874Z,25.67
2022-08-16T03:10:19.299Z,25.66
2022-08-16T03:10:50.728Z,25.67
2022-08-16T03:11:24.827Z,25.66
2022-08-16T03:12:06.902Z,25.65
2022-08-16T03:12:56.444Z,25.64
2022-08-16T03:13:28.259Z,25.64
2022-08-16T03:14:01.436Z,25.63
2022-08-16T03:14:39.047Z,25.63
2022-08-16T03:15:13.877Z,25.63
2022-08-16T03:15:45.315Z,25.64
2022-08-16T03:16:38.087Z,25.64
2022-08-16T03:17:10.736Z,25.62
2022-08-16T03:17:53.181Z,25.62
2022-08-16T03:18:34.577Z,25.62
2022-08-16T03:19:11.644Z,25.62
2022-08-16T03:19:56.589Z,25.61
2022-08-16T03:20:34.227Z,25.61
2022-08-16T03:21:05.777Z,25.60
2022-08-16T03:21:37.698Z,25.61
2022-08-16T03:22:09.995Z,25.61
2022-08-16T03:22:45.442Z,25.61
2022-08-16T03:23:16.908Z,25.61
2022-08-16T03:23:48.340Z,25.60
2022-08-16T03:24:29.127Z,25.60
2022-08-16T03:25:01.670Z,25.59
2022-08-16T03:25:44.187Z,25.60
2022-08-16T03:26:16.225Z,25.58
2022-08-16T03:26:49.489Z,25.59
2022-08-16T03:27:22.972Z,25.58
2022-08-16T03:27:54.409Z,25.59
2022-08-16T03:28:25.849Z,25.59
2022-08-16T03:28:57.289Z,25.57
2022-08-16T03:29:30.027Z,25.58
2022-08-16T03:30:02.084Z,25.57
2022-08-16T03:30:33.637Z,25.58
2022-08-16T03:31:06.620Z,25.57
2022-08-16T03:31:40.553Z,25.57
2022-08-16T03:32:13.791Z,25.56
2022-08-16T03:32:45.277Z,25.54
2022-08-16T03:33:18.907Z,25.55
2022-08-16T03:33:52.137Z,25.55
2022-08-16T03:34:23.788Z,25.54
2022-08-16T03:34:55.216Z,25.54
2022-08-16T03:35:33.385Z,25.55
2022-08-16T03:36:29.912Z,25.53
2022-08-16T03:36:56.560Z,25.53
2022-08-16T03:37:27.988Z,25.53
2022-08-16T03:38:03.189Z,25.53
2022-08-16T03:38:35.417Z,25.54
2022-08-16T03:39:10.707Z,25.52
2022-08-16T03:39:46.464Z,25.52
2022-08-16T03:40:31.767Z,25.51
2022-08-16T03:41:05.125Z,25.50
2022-08-16T03:41:49.876Z,25.50
2022-08-16T03:42:23.185Z,25.51
2022-08-16T03:43:19.124Z,25.51
2022-08-16T03:43:51.747Z,25.50
2022-08-16T03:44:43.333Z,25.50
2022-08-16T03:45:15.277Z,25.49
2022-08-16T03:45:46.708Z,25.49
2022-08-16T03:46:48.050Z,25.49
2022-08-16T03:47:10.427Z,25.49
2022-08-16T03:47:42.013Z,25.49
2022-08-16T03:48:14.938Z,25.49
2022-08-16T03:48:49.686Z,25.48
2022-08-16T03:49:22.603Z,25.48
2022-08-16T03:49:54.105Z,25.47
2022-08-16T03:50:26.886Z,25.48
2022-08-16T03:50:59.912Z,25.49
2022-08-16T03:51:32.086Z,25.48
2022-08-16T03:52:03.537Z,25.47
2022-08-16T03:52:35.241Z,25.47
2022-08-16T03:53:06.686Z,25.48
2022-08-16T03:53:38.414Z,25.48
2022-08-16T03:54:12.219Z,25.47
2022-08-16T03:54:53.047Z,25.46
2022-08-16T03:55:25.401Z,25.45
2022-08-16T03:56:19.877Z,25.45
2022-08-16T03:56:56.642Z,25.45
2022-08-16T03:57:31.416Z,25.45
2022-08-16T03:58:06.715Z,25.45
2022-08-16T03:58:38.311Z,25.45
2022-08-16T03:59:09.769Z,25.44
2022-08-16T03:59:43.608Z,25.44
2022-08-16T04:00:35.237Z,25.45
2022-08-16T04:01:07.393Z,25.42
2022-08-16T04:01:38.905Z,25.43
2022-08-16T04:02:22.476Z,25.43
2022-08-16T04:03:01.773Z,25.41
2022-08-16T04:03:33.283Z,25.42
2022-08-16T04:04:05.489Z,25.41
2022-08-16T04:04:36.919Z,25.41
2022-08-16T04:05:08.354Z,25.43
2022-08-16T04:05:39.775Z,25.41
2022-08-16T04:06:15.482Z,25.40
2022-08-16T04:06:47.287Z,25.41
2022-08-16T04:07:18.724Z,25.41
2022-08-16T04:07:50.766Z,25.40
2022-08-16T04:08:22.970Z,25.39
2022-08-16T04:08:55.769Z,25.40
2022-08-16T04:09:28.553Z,25.40
2022-08-16T04:09:59.978Z,25.39
2022-08-16T04:10:51.801Z,25.38
2022-08-16T04:11:23.747Z,25.38
2022-08-16T04:11:56.108Z,25.40
2022-08-16T04:12:53.094Z,25.38
2022-08-16T04:13:20.663Z,25.38
2022-08-16T04:14:32.712Z,25.37
2022-08-16T04:15:02.360Z,25.37
2022-08-16T04:15:34.012Z,25.38
2022-08-16T04:16:06.612Z,25.38
2022-08-16T04:16:38.119Z,25.37
2022-08-16T04:17:09.568Z,25.37
2022-08-16T04:17:40.998Z,25.37
2022-08-16T04:18:12.457Z,25.36
2022-08-16T04:18:45.218Z,25.37
2022-08-16T04:19:17.711Z,25.37
2022-08-16T04:19:54.985Z,25.36
2022-08-16T04:20:33.790Z,25.36
2022-08-16T04:21:05.774Z,25.36
2022-08-16T04:21:45.897Z,25.35
2022-08-16T04:22:18.921Z,25.36
2022-08-16T04:22:50.356Z,25.36
2022-08-16T04:23:22.014Z,25.35
2022-08-16T04:23:54.855Z,25.35
2022-08-16T04:24:28.813Z,25.35
2022-08-16T04:25:00.469Z,25.35
2022-08-16T04:25:32.132Z,25.35
2022-08-16T04:26:03.557Z,25.34
2022-08-16T04:26:35.932Z,25.35
2022-08-16T04:27:08.914Z,25.34
2022-08-16T04:27:40.608Z,25.32
2022-08-16T04:28:29.337Z,25.33
2022-08-16T04:29:23.315Z,25.33
2022-08-16T04:30:03.052Z,25.32
2022-08-16T04:30:35.707Z,25.32
2022-08-16T04:31:10.509Z,25.32
2022-08-16T04:31:42.067Z,25.32
2022-08-16T04:32:15.280Z,25.33
2022-08-16T04:32:49.224Z,25.32
2022-08-16T04:33:27.318Z,25.33
2022-08-16T04:33:59.036Z,25.32
2022-08-16T04:34:30.467Z,25.32
2022-08-16T04:35:07.639Z,25.32
2022-08-16T04:35:40.895Z,25.31
2022-08-16T04:36:12.323Z,25.32
2022-08-16T04:36:51.704Z,25.32
2022-08-16T04:37:25.494Z,25.31
2022-08-16T04:37:56.996Z,25.31
2022-08-16T04:38:28.500Z,25.30
2022-08-16T04:39:02.100Z,25.32
2022-08-16T04:39:36.539Z,25.30
2022-08-16T04:40:08.660Z,25.32
2022-08-16T04:40:40.132Z,25.31
2022-08-16T04:41:11.690Z,25.32
2022-08-16T04:41:44.615Z,25.31
2022-08-16T04:42:16.045Z,25.30
2022-08-16T04:42:47.501Z,25.31
2022-08-16T04:43:18.959Z,25.30
2022-08-16T04:43:50.390Z,25.30
2022-08-16T04:44:32.387Z,25.30
2022-08-16T04:45:04.248Z,25.30
2022-08-16T04:45:37.030Z,25.29
2022-08-16T04:46:32.023Z,25.30
2022-08-16T04:47:02.576Z,25.30
2022-08-16T04:47:35.916Z,25.30
2022-08-16T04:48:07.483Z,25.29
2022-08-16T04:48:38.917Z,25.29
2022-08-16T04:49:12.121Z,25.30
2022-08-16T04:49:46.339Z,25.30
2022-08-16T04:50:17.984Z,25.28
2022-08-16T04:50:49.559Z,25.28
2022-08-16T04:51:21.174Z,25.29
2022-08-16T04:51:53.963Z,25.29
2022-08-16T04:52:33.644Z,25.29
2022-08-16T04:53:06.933Z,25.27
2022-08-16T04:53:41.351Z,25.27
2022-08-16T04:54:13.023Z,25.29
2022-08-16T04:54:50.822Z,25.27
2022-08-16T04:55:22.252Z,25.27
2022-08-16T04:56:03.427Z,25.26
2022-08-16T04:56:46.436Z,25.26
2022-08-16T04:57:20.211Z,25.27
2022-08-16T04:57:53.741Z,25.27
2022-08-16T04:58:43.854Z,25.24
2022-08-16T04:59:16.992Z,25.26
2022-08-16T04:59:48.447Z,25.25
2022-08-16T05:00:31.734Z,25.25
2022-08-16T05:01:04.903Z,25.25
2022-08-16T05:01:55.892Z,25.24
2022-08-16T05:02:42.090Z,25.26
2022-08-16T05:03:22.092Z,25.25
2022-08-16T05:04:00.846Z,25.26
2022-08-16T05:04:33.084Z,25.26
2022-08-16T05:05:04.516Z,25.25
2022-08-16T05:05:36.840Z,25.25
2022-08-16T05:06:17.021Z,25.24
2022-08-16T05:06:49.575Z,25.24
2022-08-16T05:07:21.011Z,25.24
2022-08-16T05:07:59.594Z,25.24
2022-08-16T05:08:31.753Z,25.24
2022-08-16T05:09:03.301Z,25.24
2022-08-16T05:09:36.363Z,25.25
2022-08-16T05:10:19.918Z,25.24
2022-08-16T05:10:54.157Z,25.25
2022-08-16T05:11:32.031Z,25.24
2022-08-16T05:12:03.737Z,25.24
2022-08-16T05:12:36.216Z,25.24
2022-08-16T05:13:08.265Z,25.24
2022-08-16T05:13:47.101Z,25.24
2022-08-16T05:14:20.181Z,25.23
2022-08-16T05:15:10.448Z,25.24
2022-08-16T05:15:42.330Z,25.24
2022-08-16T05:16:20.000Z,25.23
2022-08-16T05:16:53.016Z,25.24
2022-08-16T05:17:24.758Z,25.23
2022-08-16T05:17:58.897Z,25.23
2022-08-16T05:18:31.232Z,25.22
2022-08-16T05:19:02.687Z,25.24
2022-08-16T05:19:36.154Z,25.23
2022-08-16T05:20:38.712Z,25.23
2022-08-16T05:21:01.753Z,25.23
2022-08-16T05:21:42.364Z,25.24
2022-08-16T05:22:18.075Z,25.24
2022-08-16T05:22:49.912Z,25.24
2022-08-16T05:23:24.524Z,25.24
2022-08-16T05:24:03.113Z,25.25
2022-08-16T05:24:37.635Z,25.24
2022-08-16T05:25:09.441Z,25.24
2022-08-16T05:25:48.537Z,25.24
2022-08-16T05:26:20.525Z,25.24
2022-08-16T05:26:51.973Z,25.23
2022-08-16T05:27:23.988Z,25.23
2022-08-16T05:27:55.422Z,25.23
2022-08-16T05:28:30.995Z,25.23
2022-08-16T05:29:11.044Z,25.23
2022-08-16T05:30:00.065Z,25.23
2022-08-16T05:30:34.676Z,25.23
2022-08-16T05:31:07.295Z,25.24
2022-08-16T05:31:47.926Z,25.23
2022-08-16T05:32:33.711Z,25.23
2022-08-16T05:33:08.892Z,25.23
2022-08-16T05:33:53.530Z,25.22
2022-08-16T05:34:26.120Z,25.23
2022-08-16T05:34:57.543Z,25.23
2022-08-16T05:35:28.971Z,25.22
2022-08-16T05:36:00.402Z,25.22
2022-08-16T05:36:37.015Z,25.22
2022-08-16T05:37:08.712Z,25.22
2022-08-16T05:37:40.205Z,25.22
2022-08-16T05:38:33.020Z,25.22
2022-08-16T05:39:03.103Z,25.21
2022-08-16T05:39:37.644Z,25.22
2022-08-16T05:40:13.192Z,25.21
2022-08-16T05:40:59.752Z,25.22
2022-08-16T05:41:31.732Z,25.21
2022-08-16T05:42:03.505Z,25.22
2022-08-16T05:42:35.881Z,25.23
2022-08-16T05:43:07.567Z,25.22
2022-08-16T05:43:46.758Z,25.24
2022-08-16T05:44:23.063Z,25.22
2022-08-16T05:44:56.196Z,25.22
2022-08-16T05:45:29.110Z,25.22
2022-08-16T05:46:00.639Z,25.23
2022-08-16T05:46:32.070Z,25.22
2022-08-16T05:47:03.501Z,25.21
2022-08-16T05:47:43.278Z,25.22
2022-08-16T05:48:14.976Z,25.22
2022-08-16T05:48:55.187Z,25.21
2022-08-16T05:49:39.368Z,25.22
2022-08-16T05:50:19.310Z,25.22
2022-08-16T05:50:52.944Z,25.22
2022-08-16T05:51:38.923Z,25.23
2022-08-16T05:52:13.633Z,25.22
2022-08-16T05:52:48.805Z,25.21
2022-08-16T05:53:20.541Z,25.22
2022-08-16T05:53:55.706Z,25.22
2022-08-16T05:54:27.268Z,25.22
2022-08-16T05:55:01.536Z,25.22
2022-08-16T05:55:35.044Z,25.23
2022-08-16T05:56:11.960Z,25.23
2022-08-16T05:56:50.779Z,25.23
2022-08-16T05:57:22.892Z,25.23
2022-08-16T05:57:54.833Z,25.22
2022-08-16T05:58:32.819Z,25.23
2022-08-16T05:59:04.903Z,25.23
2022-08-16T05:59:37.976Z,25.22
2022-08-16T06:00:09.863Z,25.23
2022-08-16T06:00:41.544Z,25.23
2022-08-16T06:01:13.636Z,25.23
2022-08-16T06:01:45.666Z,25.23
2022-08-16T06:02:19.149Z,25.23
2022-08-16T06:02:50.584Z,25.23
2022-08-16T06:03:22.012Z,25.23
2022-08-16T06:03:53.445Z,25.23
2022-08-16T06:04:36.189Z,25.24
2022-08-16T06:05:11.024Z,25.24
2022-08-16T06:05:42.558Z,25.24
2022-08-16T06:06:14.000Z,25.24
2022-08-16T06:07:00.862Z,25.23
2022-08-16T06:07:33.959Z,25.23
2022-08-16T06:08:05.391Z,25.24
2022-08-16T06:08:42.058Z,25.24
2022-08-16T06:09:13.820Z,25.24
2022-08-16T06:09:45.402Z,25.24
2022-08-16T06:10:32.089Z,25.23
2022-08-16T06:11:10.143Z,25.23
2022-08-16T06:11:43.186Z,25.24
2022-08-16T06:12:28.011Z,25.23
2022-08-16T06:13:00.141Z,25.24
2022-08-16T06:13:32.712Z,25.23
2022-08-16T06:14:04.233Z,25.23
2022-08-16T06:14:36.795Z,25.24
2022-08-16T06:15:11.635Z,25.23
2022-08-16T06:15:46.542Z,25.23
2022-08-16T06:16:19.720Z,25.24
2022-08-16T06:16:51.216Z,25.23
2022-08-16T06:17:22.649Z,25.23
2022-08-16T06:17:54.093Z,25.22
2022-08-16T06:18:27.262Z,25.22
2022-08-16T06:18:58.945Z,25.22
2022-08-16T06:19:36.283Z,25.22
2022-08-16T06:20:07.767Z,25.21
2022-08-16T06:20:51.656Z,25.21
2022-08-16T06:21:27.851Z,25.20
2022-08-16T06:22:37.649Z,25.20
2022-08-16T06:23:16.949Z,25.20
2022-08-16T06:23:49.229Z,25.21
2022-08-16T06:24:54.603Z,25.20
2022-08-16T06:25:17.010Z,25.22
2022-08-16T06:25:52.990Z,25.22
2022-08-16T06:26:24.924Z,25.22
2022-08-16T06:27:08.024Z,25.22
2022-08-16T06:27:41.005Z,25.22
2022-08-16T06:28:17.091Z,25.23
2022-08-16T06:29:03.908Z,25.23
2022-08-16T06:29:39.344Z,25.24
2022-08-16T06:30:10.857Z,25.25
2022-08-16T06:30:44.153Z,25.25
2022-08-16T06:31:16.499Z,25.26
2022-08-16T06:31:49.347Z,25.25
2022-08-16T06:32:27.627Z,25.26
2022-08-16T06:33:00.311Z,25.27
2022-08-16T06:33:40.290Z,25.28
2022-08-16T06:34:31.507Z,25.28
2022-08-16T06:35:05.055Z,25.29
2022-08-16T06:35:41.612Z,25.30
2022-08-16T06:36:14.269Z,25.30
2022-08-16T06:36:46.329Z,25.32
2022-08-16T06:37:20.220Z,25.31
2022-08-16T06:37:52.710Z,25.32
2022-08-16T06:38:33.023Z,25.33
2022-08-16T06:39:06.026Z,25.34
2022-08-16T06:39:49.931Z,25.35
2022-08-16T06:40:21.797Z,25.35
2022-08-16T06:41:04.945Z,25.36
2022-08-16T06:41:39.884Z,25.37
2022-08-16T06:42:11.760Z,25.38
2022-08-16T06:42:47.685Z,25.38
2022-08-16T06:43:19.798Z,25.41
2022-08-16T06:43:51.352Z,25.41
2022-08-16T06:44:24.473Z,25.43
2022-08-16T06:44:58.512Z,25.43
2022-08-16T06:45:30.500Z,25.43
2022-08-16T06:46:03.705Z,25.44
2022-08-16T06:46:35.506Z,25.45
2022-08-16T06:47:08.258Z,25.46
2022-08-16T06:47:53.412Z,25.47
2022-08-16T06:48:33.093Z,25.47
2022-08-16T06:49:05.513Z,25.48
2022-08-16T06:49:37.041Z,25.48
2022-08-16T06:50:08.476Z,25.48
2022-08-16T06:50:53.313Z,25.50
2022-08-16T06:51:24.865Z,25.52
2022-08-16T06:52:57.935Z,25.52
2022-08-16T06:53:10.231Z,25.53
2022-08-16T06:53:42.064Z,25.54
2022-08-16T06:54:14.156Z,25.55
2022-08-16T06:54:46.409Z,25.55
2022-08-16T06:55:21.429Z,25.56
2022-08-16T06:55:55.787Z,25.57
2022-08-16T06:56:27.346Z,25.58
2022-08-16T06:56:58.776Z,25.58
2022-08-16T06:57:30.208Z,25.59
2022-08-16T06:58:01.751Z,25.59
2022-08-16T06:58:40.004Z,25.59
2022-08-16T06:59:12.497Z,25.60
2022-08-16T06:59:53.117Z,25.61
2022-08-16T07:00:29.880Z,25.62
2022-08-16T07:01:01.432Z,25.62
2022-08-16T07:01:43.386Z,25.63
2022-08-16T07:02:32.950Z,25.64
2022-08-16T07:03:26.864Z,25.65
2022-08-16T07:03:57.425Z,25.66
2022-08-16T07:04:32.427Z,25.66
2022-08-16T07:05:15.008Z,25.68
2022-08-16T07:05:47.024Z,25.69
2022-08-16T07:06:18.630Z,25.69
2022-08-16T07:06:53.392Z,25.71
2022-08-16T07:07:24.886Z,25.71
2022-08-16T07:08:03.893Z,25.71
2022-08-16T07:08:35.331Z,25.72
2022-08-16T07:09:09.411Z,25.73
2022-08-16T07:09:41.654Z,25.75
2022-08-16T07:10:13.167Z,25.75
2022-08-16T07:10:45.489Z,25.76
2022-08-16T07:11:16.939Z,25.78
2022-08-16T07:11:52.262Z,25.77
2022-08-16T07:12:45.814Z,25.77
2022-08-16T07:13:22.926Z,25.78
2022-08-16T07:14:25.318Z,25.78
2022-08-16T07:15:00.008Z,25.79
2022-08-16T07:15:32.363Z,25.82
2022-08-16T07:16:05.221Z,25.81
2022-08-16T07:16:37.101Z,25.81
2022-08-16T07:17:11.273Z,25.82
2022-08-16T07:17:43.048Z,25.82
2022-08-16T07:18:15.864Z,25.83
2022-08-16T07:19:01.569Z,25.84
2022-08-16T07:20:02.873Z,25.86
2022-08-16T07:20:35.492Z,25.86
2022-08-16T07:21:17.027Z,25.87
2022-08-16T07:21:59.248Z,25.88
2022-08-16T07:22:38.731Z,25.89
2022-08-16T07:23:13.491Z,25.90
2022-08-16T07:23:45.036Z,25.90
2022-08-16T07:24:30.495Z,25.91
2022-08-16T07:25:02.407Z,25.92
2022-08-16T07:25:33.876Z,25.92
2022-08-16T07:26:14.457Z,25.93
2022-08-16T07:26:56.516Z,25.93
2022-08-16T07:27:27.951Z,25.94
2022-08-16T07:27:59.389Z,25.95
2022-08-16T07:28:30.889Z,25.96
2022-08-16T07:29:02.323Z,25.96
2022-08-16T07:29:35.698Z,25.97
2022-08-16T07:30:45.430Z,25.97
2022-08-16T07:30:58.522Z,25.98
2022-08-16T07:31:37.457Z,25.99
2022-08-16T07:32:09.871Z,26.01
2022-08-16T07:32:41.322Z,26.00
2022-08-16T07:33:52.409Z,26.02
2022-08-16T07:34:14.563Z,26.02
2022-08-16T07:34:48.602Z,26.03
2022-08-16T07:35:20.528Z,26.03
2022-08-16T07:35:52.489Z,26.04
2022-08-16T07:36:23.916Z,26.06
2022-08-16T07:36:58.304Z,26.05
2022-08-16T07:37:30.365Z,26.06
2022-08-16T07:38:02.203Z,26.07
2022-08-16T07:38:35.088Z,26.07
2022-08-16T07:39:06.519Z,26.07
2022-08-16T07:39:42.889Z,26.08
2022-08-16T07:40:15.221Z,26.09
2022-08-16T07:41:00.611Z,26.10
2022-08-16T07:41:32.842Z,26.10